DETSM EDLW-EDLH
Flight info
| Callsign | DETSM |
|---|---|
| Flight time | 0h 23m |
| Altitude | |
| Route | |
| Aircraft | C172 |
Departure
| Time | 2026-05-05 20:40 |
|---|---|
| Airport | Dortmund Airport (EDLW) |
Arrival
| Time | 2026-05-05 21:03 |
|---|---|
| Airport | Hamm-Lippewiesen Airfield (EDLH) |
| Time | Latitude | Longitude | Altitude | Speed | Heading |
|---|---|---|---|---|---|
| 2026-05-05 20:33 | 51.51231 | 7.60402 | 425 ft | 12 kts | 249° |
| 2026-05-05 20:33 | 51.51190 | 7.60290 | 425 ft | 14 kts | 228° |
| 2026-05-05 20:33 | 51.51169 | 7.60168 | 420 ft | 12 kts | 335° |
| 2026-05-05 20:33 | 51.51225 | 7.60245 | 420 ft | 14 kts | 62° |
| 2026-05-05 20:34 | 51.51282 | 7.60408 | 425 ft | 20 kts | 60° |
| 2026-05-05 20:34 | 51.51372 | 7.60658 | 422 ft | 30 kts | 58° |
| 2026-05-05 20:34 | 51.51463 | 7.60917 | 413 ft | 24 kts | 62° |
| 2026-05-05 20:34 | 51.51560 | 7.61060 | 418 ft | 18 kts | 1° |
| 2026-05-05 20:35 | 51.51635 | 7.61205 | 414 ft | 22 kts | 62° |
| 2026-05-05 20:35 | 51.51727 | 7.61468 | 414 ft | 32 kts | 60° |
| 2026-05-05 20:35 | 51.51849 | 7.61817 | 411 ft | 40 kts | 60° |
| 2026-05-05 20:35 | 51.51980 | 7.62187 | 407 ft | 34 kts | 60° |
| 2026-05-05 20:36 | 51.52018 | 7.62298 | 406 ft | 0 kts | 63° |
| 2026-05-05 20:36 | 51.52037 | 7.62349 | 406 ft | 14 kts | 58° |
| 2026-05-05 20:37 | 51.52110 | 7.62383 | 405 ft | 10 kts | 329° |
| 2026-05-05 20:37 | 51.52119 | 7.62374 | 405 ft | 0 kts | 328° |
| 2026-05-05 20:38 | 51.52134 | 7.62360 | 406 ft | 11 kts | 329° |
| 2026-05-05 20:38 | 51.52189 | 7.62239 | 407 ft | 13 kts | 252° |
| 2026-05-05 20:38 | 51.52182 | 7.62216 | 407 ft | 0 kts | 242° |
| 2026-05-05 20:39 | 51.52182 | 7.62214 | 407 ft | 0 kts | 242° |
| 2026-05-05 20:39 | 51.52096 | 7.61966 | 410 ft | 53 kts | 240° |
| 2026-05-05 20:39 | 51.51830 | 7.61271 | 456 ft | 86 kts | 243° |
| 2026-05-05 20:39 | 51.51532 | 7.60454 | 692 ft | 85 kts | 246° |
| 2026-05-05 20:40 | 51.51231 | 7.59685 | 923 ft | 79 kts | 238° |
| 2026-05-05 20:40 | 51.51072 | 7.58850 | 1144 ft | 79 kts | 269° |
| 2026-05-05 20:40 | 51.51212 | 7.57962 | 1299 ft | 84 kts | 314° |
| 2026-05-05 20:40 | 51.51668 | 7.57396 | 1546 ft | 85 kts | 354° |
| 2026-05-05 20:41 | 51.52237 | 7.57703 | 1601 ft | 99 kts | 34° |
| 2026-05-05 20:41 | 51.52738 | 7.58592 | 1558 ft | 113 kts | 62° |
| 2026-05-05 20:41 | 51.53084 | 7.59714 | 1455 ft | 111 kts | 62° |
| 2026-05-05 20:41 | 51.53423 | 7.60841 | 1341 ft | 105 kts | 62° |
| 2026-05-05 20:42 | 51.53696 | 7.61887 | 1333 ft | 103 kts | 63° |
| 2026-05-05 20:42 | 51.53964 | 7.62885 | 1428 ft | 92 kts | 60° |
| 2026-05-05 20:42 | 51.54217 | 7.63892 | 1328 ft | 111 kts | 88° |
| 2026-05-05 20:42 | 51.53704 | 7.64845 | 1167 ft | 135 kts | 159° |
| 2026-05-05 20:43 | 51.52747 | 7.65024 | 960 ft | 142 kts | 201° |
| 2026-05-05 20:43 | 51.52117 | 7.63941 | 904 ft | 132 kts | 259° |
| 2026-05-05 20:43 | 51.52240 | 7.62654 | 653 ft | 99 kts | 253° |
| 2026-05-05 20:43 | 51.52009 | 7.61773 | 427 ft | 74 kts | 245° |
| 2026-05-05 20:44 | 51.51764 | 7.61060 | 429 ft | 82 kts | 249° |
| 2026-05-05 20:44 | 51.51460 | 7.60210 | 608 ft | 91 kts | 247° |
| 2026-05-05 20:44 | 51.51166 | 7.59249 | 716 ft | 101 kts | 262° |
| 2026-05-05 20:44 | 51.51274 | 7.58253 | 1010 ft | 89 kts | 306° |
| 2026-05-05 20:45 | 51.52096 | 7.56707 | 1367 ft | 95 kts | 324° |
| 2026-05-05 20:45 | 51.52614 | 7.56043 | 1534 ft | 100 kts | 324° |
| 2026-05-05 20:45 | 51.53210 | 7.55432 | 1679 ft | 104 kts | 328° |
| 2026-05-05 20:46 | 51.53806 | 7.54694 | 1788 ft | 110 kts | 328° |
| 2026-05-05 20:46 | 51.54493 | 7.54140 | 1851 ft | 114 kts | 339° |
| 2026-05-05 20:46 | 51.55224 | 7.53693 | 1961 ft | 115 kts | 352° |
| 2026-05-05 20:46 | 51.56067 | 7.53771 | 1927 ft | 122 kts | 2° |
| 2026-05-05 20:47 | 51.56856 | 7.53815 | 2144 ft | 102 kts | 0° |
| 2026-05-05 20:47 | 51.57580 | 7.53750 | 2223 ft | 105 kts | 355° |
| 2026-05-05 20:47 | 51.58321 | 7.53746 | 2231 ft | 110 kts | 4° |
| 2026-05-05 20:47 | 51.59097 | 7.53596 | 2176 ft | 113 kts | 345° |
| 2026-05-05 20:48 | 51.59782 | 7.54033 | 2165 ft | 116 kts | 38° |
| 2026-05-05 20:48 | 51.60411 | 7.54877 | 2120 ft | 117 kts | 47° |
| 2026-05-05 20:48 | 51.60934 | 7.55863 | 2115 ft | 115 kts | 50° |
| 2026-05-05 20:48 | 51.61438 | 7.56850 | 2109 ft | 113 kts | 51° |
| 2026-05-05 20:49 | 51.61920 | 7.57826 | 2113 ft | 110 kts | 52° |
| 2026-05-05 20:49 | 51.62387 | 7.58789 | 2106 ft | 108 kts | 52° |
| 2026-05-05 20:49 | 51.62836 | 7.59748 | 2114 ft | 107 kts | 53° |
| 2026-05-05 20:49 | 51.63276 | 7.60736 | 2109 ft | 109 kts | 54° |
| 2026-05-05 20:50 | 51.63712 | 7.61720 | 2119 ft | 107 kts | 54° |
| 2026-05-05 20:50 | 51.64143 | 7.62710 | 2117 ft | 108 kts | 57° |
| 2026-05-05 20:50 | 51.64553 | 7.63727 | 2104 ft | 108 kts | 58° |
| 2026-05-05 20:50 | 51.64874 | 7.64771 | 2198 ft | 101 kts | 64° |
| 2026-05-05 20:51 | 51.65181 | 7.65796 | 2207 ft | 102 kts | 65° |
| 2026-05-05 20:51 | 51.65470 | 7.66841 | 2229 ft | 102 kts | 69° |
| 2026-05-05 20:51 | 51.65721 | 7.67971 | 2233 ft | 107 kts | 72° |
| 2026-05-05 20:51 | 51.65908 | 7.69119 | 2260 ft | 103 kts | 76° |
| 2026-05-05 20:52 | 51.66117 | 7.70219 | 2274 ft | 98 kts | 71° |
| 2026-05-05 20:52 | 51.66344 | 7.71256 | 2277 ft | 96 kts | 66° |
| 2026-05-05 20:52 | 51.66621 | 7.72265 | 2269 ft | 101 kts | 60° |
| 2026-05-05 20:52 | 51.67102 | 7.73114 | 2235 ft | 104 kts | 46° |
| 2026-05-05 20:53 | 51.67620 | 7.73990 | 2070 ft | 106 kts | 34° |
| 2026-05-05 20:53 | 51.68233 | 7.74582 | 1920 ft | 101 kts | 29° |
| 2026-05-05 20:53 | 51.68862 | 7.75215 | 1628 ft | 109 kts | 33° |
| 2026-05-05 20:53 | 51.69425 | 7.75973 | 1467 ft | 106 kts | 48° |
| 2026-05-05 20:54 | 51.69909 | 7.76914 | 1276 ft | 104 kts | 51° |
| 2026-05-05 20:54 | 51.70371 | 7.77797 | 1154 ft | 103 kts | 49° |
| 2026-05-05 20:54 | 51.70719 | 7.78773 | 1062 ft | 100 kts | 57° |
| 2026-05-05 20:54 | 51.71078 | 7.79694 | 1054 ft | 98 kts | 59° |
| 2026-05-05 20:55 | 51.71441 | 7.80610 | 1057 ft | 97 kts | 53° |
| 2026-05-05 20:55 | 51.71843 | 7.81452 | 1068 ft | 95 kts | 52° |
| 2026-05-05 20:55 | 51.72203 | 7.82346 | 1053 ft | 95 kts | 79° |
| 2026-05-05 20:55 | 51.71906 | 7.83242 | 1045 ft | 99 kts | 141° |
| 2026-05-05 20:56 | 51.71327 | 7.83948 | 957 ft | 107 kts | 156° |
| 2026-05-05 20:56 | 51.70671 | 7.84359 | 1010 ft | 98 kts | 180° |
| 2026-05-05 20:56 | 51.70032 | 7.83996 | 784 ft | 91 kts | 215° |
| 2026-05-05 20:56 | 51.69660 | 7.83355 | 583 ft | 76 kts | 233° |
| 2026-05-05 20:57 | 51.69337 | 7.82637 | 302 ft | 73 kts | 231° |
| 2026-05-05 20:57 | 51.69095 | 7.81992 | 202 ft | 59 kts | 239° |
| 2026-05-05 20:57 | 51.68842 | 7.81319 | 270 ft | 79 kts | 240° |
| 2026-05-05 20:57 | 51.68548 | 7.80498 | 430 ft | 91 kts | 237° |
| 2026-05-05 20:58 | 51.68351 | 7.79553 | 708 ft | 86 kts | 273° |
| 2026-05-05 20:58 | 51.68548 | 7.78610 | 889 ft | 92 kts | 300° |
| 2026-05-05 20:58 | 51.68969 | 7.77887 | 1120 ft | 90 kts | 330° |
| 2026-05-05 20:58 | 51.69586 | 7.77698 | 1193 ft | 93 kts | 19° |
| 2026-05-05 20:59 | 51.70059 | 7.78475 | 1183 ft | 102 kts | 47° |
| 2026-05-05 20:59 | 51.70575 | 7.79266 | 1267 ft | 100 kts | 42° |
| 2026-05-05 20:59 | 51.71067 | 7.80041 | 1261 ft | 100 kts | 46° |
| 2026-05-05 20:59 | 51.71543 | 7.80838 | 1244 ft | 101 kts | 45° |
| 2026-05-05 21:00 | 51.72057 | 7.81620 | 1232 ft | 100 kts | 47° |
| 2026-05-05 21:00 | 51.72389 | 7.82623 | 1231 ft | 99 kts | 63° |
| 2026-05-05 21:00 | 51.72701 | 7.83616 | 1243 ft | 98 kts | 64° |
| 2026-05-05 21:00 | 51.72916 | 7.84642 | 1213 ft | 97 kts | 97° |
| 2026-05-05 21:01 | 51.72617 | 7.85601 | 1183 ft | 98 kts | 138° |
| 2026-05-05 21:01 | 51.72014 | 7.86188 | 1077 ft | 105 kts | 159° |
| 2026-05-05 21:01 | 51.71376 | 7.86657 | 1079 ft | 102 kts | 150° |
| 2026-05-05 21:01 | 51.70751 | 7.87061 | 1126 ft | 90 kts | 198° |
| 2026-05-05 21:02 | 51.70317 | 7.86466 | 1015 ft | 89 kts | 247° |
| 2026-05-05 21:02 | 51.70144 | 7.85502 | 826 ft | 88 kts | 257° |
| 2026-05-05 21:02 | 51.69967 | 7.84567 | 613 ft | 87 kts | 253° |
| 2026-05-05 21:02 | 51.69733 | 7.83718 | 465 ft | 78 kts | 243° |
| 2026-05-05 21:03 | 51.69464 | 7.82978 | 316 ft | 75 kts | 239° |
| 2026-05-05 21:03 | 51.69193 | 7.82252 | 206 ft | 73 kts | 240° |
| 2026-05-05 21:03 | 51.68986 | 7.81677 | 196 ft | 38 kts | 239° |
| 2026-05-05 21:03 | 51.68911 | 7.81477 | 195 ft | 12 kts | 236° |
| 2026-05-05 21:04 | 51.68919 | 7.81433 | 200 ft | 0 kts | 338° |
| 2026-05-05 21:04 | 51.68955 | 7.81402 | 194 ft | 11 kts | 334° |
| 2026-05-05 21:04 | 51.68992 | 7.81428 | 195 ft | 5 kts | 67° |
| 2026-05-05 21:04 | 51.69001 | 7.81422 | 194 ft | 0 kts | 279° |
| 2026-05-05 21:05 | 51.69001 | 7.81423 | 194 ft | 0 kts | 279° |
| 2026-05-05 21:06 | 51.69001 | 7.81422 | 194 ft | 0 kts | 279° |